createdAt,value
2022-08-14T00:02:14.758Z,3.75
2022-08-14T00:04:45.026Z,4.15
2022-08-14T00:07:14.549Z,3.90
2022-08-14T00:10:01.808Z,3.95
2022-08-14T00:12:56.345Z,4.18
2022-08-14T00:15:43.520Z,3.92
2022-08-14T00:19:06.913Z,3.35
2022-08-14T00:21:03.448Z,4.05
2022-08-14T00:23:31.307Z,4.20
2022-08-14T00:26:06.711Z,4.10
2022-08-14T00:28:37.105Z,4.15
2022-08-14T00:31:08.156Z,4.28
2022-08-14T00:33:52.469Z,3.70
2022-08-14T00:36:36.909Z,4.47
2022-08-14T00:39:18.366Z,4.07
2022-08-14T00:41:47.412Z,4.15
2022-08-14T00:44:21.298Z,3.42
2022-08-14T00:47:00.131Z,3.85
2022-08-14T00:49:30.074Z,3.20
2022-08-14T00:51:58.056Z,3.67
2022-08-14T00:54:26.508Z,3.72
2022-08-14T00:56:55.765Z,4.03
2022-08-14T00:59:28.876Z,4.15
2022-08-14T01:01:59.821Z,3.72
2022-08-14T01:04:52.157Z,3.50
2022-08-14T01:07:21.867Z,3.58
2022-08-14T01:09:56.487Z,3.47
2022-08-14T01:12:40.480Z,3.25
2022-08-14T01:15:09.729Z,3.90
2022-08-14T01:18:00.766Z,3.65
2022-08-14T01:20:49.357Z,3.88
2022-08-14T01:23:18.828Z,3.40
2022-08-14T01:25:52.282Z,3.70
2022-08-14T01:28:46.229Z,3.92
2022-08-14T01:31:14.545Z,4.00
2022-08-14T01:33:52.256Z,3.88
2022-08-14T01:36:39.347Z,3.78
2022-08-14T01:39:13.038Z,3.65
2022-08-14T01:41:43.943Z,4.00
2022-08-14T01:44:31.256Z,3.72
2022-08-14T01:47:11.798Z,3.85
2022-08-14T01:49:45.979Z,3.95
2022-08-14T01:52:34.598Z,3.13
2022-08-14T01:55:02.038Z,3.53
2022-08-14T01:57:34.082Z,4.30
2022-08-14T02:00:20.215Z,3.85
2022-08-14T02:02:52.661Z,4.20
2022-08-14T02:05:20.626Z,4.03
2022-08-14T02:07:55.695Z,3.83
2022-08-14T02:10:26.349Z,3.83
2022-08-14T02:12:57.628Z,3.88
2022-08-14T02:17:54.562Z,4.35
2022-08-14T02:20:23.772Z,4.25
2022-08-14T02:22:54.695Z,3.38
2022-08-14T02:25:23.929Z,4.13
2022-08-14T02:28:22.506Z,3.40
2022-08-14T02:30:45.408Z,3.65
2022-08-14T02:33:13.132Z,4.18
2022-08-14T02:35:43.795Z,3.92
2022-08-14T02:38:30.204Z,3.38
2022-08-14T02:40:59.776Z,4.13
2022-08-14T02:43:37.024Z,4.05
2022-08-14T02:46:20.341Z,4.50
2022-08-14T02:49:04.190Z,3.65
2022-08-14T02:51:36.646Z,4.60
2022-08-14T02:54:13.139Z,4.40
2022-08-14T02:57:15.120Z,4.38
2022-08-14T02:59:36.995Z,3.60
2022-08-14T03:02:05.614Z,3.83
2022-08-14T03:04:33.683Z,4.07
2022-08-14T03:07:07.297Z,4.07
2022-08-14T03:09:42.211Z,4.40
2022-08-14T03:12:31.334Z,4.30
2022-08-14T03:15:14.022Z,4.22
2022-08-14T03:17:57.892Z,4.00
2022-08-14T03:20:30.666Z,3.72
2022-08-14T03:23:03.323Z,3.92
2022-08-14T03:25:37.623Z,3.95
2022-08-14T03:28:14.414Z,3.95
2022-08-14T03:30:42.778Z,3.90
2022-08-14T03:33:12.947Z,4.18
2022-08-14T03:36:00.112Z,3.97
2022-08-14T03:39:14.042Z,4.57
2022-08-14T03:41:33.180Z,4.25
2022-08-14T03:45:25.748Z,4.50
2022-08-14T03:46:56.152Z,4.60
2022-08-14T03:49:29.422Z,4.60
2022-08-14T03:52:01.235Z,4.68
2022-08-14T03:54:29.565Z,4.97
2022-08-14T03:57:02.996Z,4.40
2022-08-14T03:59:32.697Z,4.85
2022-08-14T04:02:04.537Z,4.65
2022-08-14T04:04:39.450Z,4.65
2022-08-14T04:07:11.403Z,4.38
2022-08-14T04:09:38.871Z,4.57
2022-08-14T04:12:08.358Z,4.43
2022-08-14T04:14:40.904Z,4.65
2022-08-14T04:17:09.838Z,4.68
2022-08-14T04:19:39.197Z,4.45
2022-08-14T04:22:06.597Z,4.55
2022-08-14T04:24:38.580Z,4.45
2022-08-14T04:27:12.128Z,5.63
2022-08-14T04:29:42.911Z,5.03
2022-08-14T04:35:01.586Z,4.18
2022-08-14T04:37:53.599Z,4.30
2022-08-14T04:40:40.712Z,4.13
2022-08-14T04:43:38.996Z,4.50
2022-08-14T04:46:54.761Z,4.82
2022-08-14T04:49:00.189Z,4.47
2022-08-14T04:51:30.152Z,5.32
2022-08-14T04:54:13.909Z,5.20
2022-08-14T04:56:45.407Z,5.10
2022-08-14T04:59:12.855Z,4.85
2022-08-14T05:01:45.261Z,5.55
2022-08-14T05:04:20.401Z,4.47
2022-08-14T05:06:55.260Z,5.03
2022-08-14T05:09:28.843Z,5.03
2022-08-14T05:13:10.588Z,4.53
2022-08-14T05:14:53.383Z,4.75
2022-08-14T05:17:31.851Z,4.78
2022-08-14T05:21:04.781Z,4.85
2022-08-14T05:23:02.635Z,4.30
2022-08-14T05:25:30.909Z,3.65
2022-08-14T05:28:28.013Z,4.03
2022-08-14T05:31:02.051Z,4.13
2022-08-14T05:33:33.312Z,4.10
2022-08-14T05:36:05.633Z,4.03
2022-08-14T05:38:46.896Z,3.73
2022-08-14T05:41:18.805Z,4.32
2022-08-14T05:43:48.827Z,3.58
2022-08-14T05:46:27.453Z,4.35
2022-08-14T05:48:58.946Z,4.20
2022-08-14T05:51:27.600Z,4.28
2022-08-14T05:54:12.739Z,4.50
2022-08-14T05:56:48.629Z,4.15
2022-08-14T05:59:16.745Z,4.05
2022-08-14T06:01:44.234Z,3.72
2022-08-14T06:04:14.006Z,3.75
2022-08-14T06:06:43.614Z,4.50
2022-08-14T06:09:11.187Z,3.78
2022-08-14T06:11:38.522Z,3.88
2022-08-14T06:14:12.283Z,4.22
2022-08-14T06:16:50.156Z,4.03
2022-08-14T06:19:23.470Z,3.92
2022-08-14T06:21:58.389Z,4.20
2022-08-14T06:24:30.751Z,4.20
2022-08-14T06:27:04.782Z,4.47
2022-08-14T06:29:35.172Z,4.18
2022-08-14T06:32:36.653Z,3.22
2022-08-14T06:35:02.915Z,4.10
2022-08-14T06:37:48.009Z,3.70
2022-08-14T06:40:27.625Z,4.25
2022-08-14T06:43:00.534Z,3.90
2022-08-14T06:45:36.168Z,3.63
2022-08-14T06:48:06.184Z,3.92
2022-08-14T06:50:40.443Z,3.45
2022-08-14T06:53:14.937Z,3.38
2022-08-14T06:56:00.651Z,3.80
2022-08-14T06:58:30.730Z,3.83
2022-08-14T07:01:25.057Z,4.05
2022-08-14T07:04:23.236Z,4.22
2022-08-14T07:06:54.923Z,4.10
2022-08-14T07:09:27.906Z,3.97
2022-08-14T07:11:56.263Z,4.13
2022-08-14T07:14:25.062Z,3.88
2022-08-14T07:16:54.006Z,4.10
2022-08-14T07:19:21.559Z,4.97
2022-08-14T07:21:50.278Z,4.32
2022-08-14T07:24:21.482Z,3.97
2022-08-14T07:26:50.946Z,3.88
2022-08-14T07:29:20.670Z,4.97
2022-08-14T07:31:51.489Z,4.20
2022-08-14T07:34:36.438Z,3.90
2022-08-14T07:37:07.716Z,4.60
2022-08-14T07:39:37.283Z,4.60
2022-08-14T07:42:06.462Z,3.90
2022-08-14T07:44:35.662Z,4.45
2022-08-14T07:47:13.018Z,4.30
2022-08-14T07:49:41.909Z,4.60
2022-08-14T07:52:10.879Z,4.32
2022-08-14T07:54:42.916Z,3.60
2022-08-14T07:57:17.696Z,3.53
2022-08-14T07:59:52.404Z,3.88
2022-08-14T08:02:21.913Z,3.78
2022-08-14T08:04:58.765Z,4.45
2022-08-14T08:07:31.035Z,3.80
2022-08-14T08:10:00.827Z,4.20
2022-08-14T08:12:31.107Z,4.43
2022-08-14T08:15:05.753Z,4.38
2022-08-14T08:17:39.135Z,3.67
2022-08-14T08:20:29.574Z,4.30
2022-08-14T08:23:06.074Z,4.35
2022-08-14T08:25:39.654Z,3.88
2022-08-14T08:28:21.788Z,3.90
2022-08-14T08:30:57.035Z,4.50
2022-08-14T08:33:31.748Z,4.38
2022-08-14T08:36:06.640Z,3.90
2022-08-14T08:39:18.702Z,3.97
2022-08-14T08:41:23.560Z,4.15
2022-08-14T08:43:52.446Z,4.10
2022-08-14T08:46:23.418Z,4.63
2022-08-14T08:51:33.420Z,4.20
2022-08-14T08:54:20.051Z,4.70
2022-08-14T08:56:53.761Z,4.30
2022-08-14T08:59:34.362Z,4.07
2022-08-14T09:02:10.751Z,3.88
2022-08-14T09:04:45.864Z,3.88
2022-08-14T09:07:27.368Z,4.00
2022-08-14T09:10:00.011Z,3.45
2022-08-14T09:12:33.727Z,4.28
2022-08-14T09:15:03.117Z,3.70
2022-08-14T09:17:32.308Z,3.80
2022-08-14T09:20:01.922Z,4.07
2022-08-14T09:22:34.788Z,4.43
2022-08-14T09:25:06.988Z,3.90
2022-08-14T09:27:35.773Z,4.22
2022-08-14T09:30:31.208Z,4.47
2022-08-14T09:33:10.638Z,3.78
2022-08-14T09:35:42.386Z,4.22
2022-08-14T09:38:26.069Z,4.65
2022-08-14T09:42:21.620Z,3.80
2022-08-14T09:44:39.885Z,4.00
2022-08-14T09:47:10.877Z,4.28
2022-08-14T09:49:43.505Z,4.60
2022-08-14T09:52:32.755Z,4.00
2022-08-14T09:55:02.734Z,3.75
2022-08-14T09:57:31.832Z,4.07
2022-08-14T10:00:29.288Z,4.43
2022-08-14T10:03:05.567Z,4.10
2022-08-14T10:05:39.196Z,4.07
2022-08-14T10:08:26.567Z,3.80
2022-08-14T10:11:02.340Z,3.70
2022-08-14T10:13:42.906Z,3.20
2022-08-14T10:16:27.416Z,3.22
2022-08-14T10:19:22.349Z,3.83
2022-08-14T10:23:14.332Z,4.38
2022-08-14T10:24:59.746Z,4.07
2022-08-14T10:27:28.043Z,3.97
2022-08-14T10:29:59.991Z,3.90
2022-08-14T10:35:14.709Z,3.30
2022-08-14T10:37:49.799Z,3.72
2022-08-14T10:40:44.275Z,3.50
2022-08-14T10:43:26.242Z,3.88
2022-08-14T10:45:59.825Z,3.95
2022-08-14T10:48:36.510Z,3.70
2022-08-14T10:51:08.646Z,3.35
2022-08-14T10:53:39.302Z,3.55
2022-08-14T10:56:32.109Z,3.83
2022-08-14T10:59:08.122Z,3.30
2022-08-14T11:01:41.478Z,3.60
2022-08-14T11:04:25.071Z,4.25
2022-08-14T11:06:54.364Z,3.75
2022-08-14T11:09:21.722Z,3.72
2022-08-14T11:12:34.447Z,3.53
2022-08-14T11:14:59.724Z,3.42
2022-08-14T11:17:36.576Z,3.10
2022-08-14T11:20:06.802Z,3.35
2022-08-14T11:22:56.509Z,3.13
2022-08-14T11:25:36.927Z,3.47
2022-08-14T11:28:19.297Z,3.42
2022-08-14T11:30:54.368Z,3.70
2022-08-14T11:33:29.508Z,3.78
2022-08-14T11:36:01.953Z,3.55
2022-08-14T11:38:39.051Z,3.30
2022-08-14T11:41:17.328Z,3.40
2022-08-14T11:43:57.834Z,3.22
2022-08-14T11:46:30.204Z,3.87
2022-08-14T11:49:06.686Z,3.65
2022-08-14T11:51:42.890Z,3.35
2022-08-14T11:54:33.491Z,2.90
2022-08-14T11:57:01.446Z,3.08
2022-08-14T11:59:32.624Z,3.08
2022-08-14T12:05:17.429Z,3.30
2022-08-14T12:07:52.925Z,3.00
2022-08-14T12:10:27.215Z,3.72
2022-08-14T12:13:17.338Z,2.92
2022-08-14T12:15:51.425Z,3.38
2022-08-14T12:18:33.284Z,3.10
2022-08-14T12:21:21.125Z,3.40
2022-08-14T12:24:05.208Z,2.55
2022-08-14T12:26:40.550Z,2.97
2022-08-14T12:29:16.275Z,3.35
2022-08-14T12:31:50.405Z,3.88
2022-08-14T12:34:24.328Z,3.15
2022-08-14T12:37:06.014Z,3.08
2022-08-14T12:39:40.144Z,2.80
2022-08-14T12:42:08.849Z,2.90
2022-08-14T12:44:43.326Z,3.00
2022-08-14T12:47:18.064Z,2.53
2022-08-14T12:49:54.033Z,3.33
2022-08-14T12:52:41.771Z,3.45
2022-08-14T12:55:21.771Z,3.30
2022-08-14T12:57:53.429Z,2.88
2022-08-14T13:00:26.676Z,3.38
2022-08-14T13:02:56.431Z,2.80
2022-08-14T13:05:30.323Z,3.15
2022-08-14T13:07:59.540Z,2.67
2022-08-14T13:10:51.958Z,3.33
2022-08-14T13:13:18.410Z,3.03
2022-08-14T13:15:48.634Z,2.78
2022-08-14T13:18:28.725Z,3.25
2022-08-14T13:21:02.249Z,2.80
2022-08-14T13:23:36.505Z,2.75
2022-08-14T13:26:05.249Z,2.97
2022-08-14T13:28:41.346Z,3.38
2022-08-14T13:31:24.322Z,2.60
2022-08-14T13:34:00.395Z,2.95
2022-08-14T13:36:51.935Z,2.43
2022-08-14T13:39:17.760Z,2.50
2022-08-14T13:41:47.445Z,2.65
2022-08-14T13:44:15.958Z,2.67
2022-08-14T13:46:50.125Z,2.70
2022-08-14T13:49:20.288Z,2.60
2022-08-14T13:54:21.428Z,2.55
2022-08-14T13:56:50.932Z,3.00
2022-08-14T13:59:20.491Z,2.55
2022-08-14T14:02:07.987Z,2.45
2022-08-14T14:04:41.064Z,2.65
2022-08-14T14:07:15.287Z,2.50
2022-08-14T14:09:51.198Z,2.22
2022-08-14T14:12:37.968Z,2.10
2022-08-14T14:15:14.840Z,2.33
2022-08-14T14:17:47.738Z,2.65
2022-08-14T14:20:35.854Z,2.53
2022-08-14T14:23:09.480Z,2.78
2022-08-14T14:25:51.321Z,2.22
2022-08-14T14:28:34.268Z,2.45
2022-08-14T14:31:06.171Z,2.42
2022-08-14T14:33:47.431Z,2.80
2022-08-14T14:36:26.837Z,2.72
2022-08-14T14:38:58.615Z,2.58
2022-08-14T14:41:37.995Z,2.42
2022-08-14T14:44:13.646Z,2.45
2022-08-14T14:46:51.150Z,2.42
2022-08-14T14:49:31.923Z,2.72
2022-08-14T14:52:23.121Z,2.72
2022-08-14T14:54:56.749Z,2.80
2022-08-14T14:57:30.374Z,2.72
2022-08-14T15:00:04.578Z,3.00
2022-08-14T15:02:36.967Z,2.50
2022-08-14T15:05:08.441Z,2.63
2022-08-14T15:07:37.613Z,2.80
2022-08-14T15:10:27.577Z,2.60
2022-08-14T15:13:00.422Z,3.13
2022-08-14T15:15:32.751Z,2.80
2022-08-14T15:18:01.193Z,2.90
2022-08-14T15:20:30.623Z,2.60
2022-08-14T15:23:11.925Z,2.60
2022-08-14T15:25:53.205Z,3.20
2022-08-14T15:28:21.856Z,2.47
2022-08-14T15:30:58.028Z,2.45
2022-08-14T15:34:00.982Z,3.30
2022-08-14T15:36:37.085Z,3.08
2022-08-14T15:39:06.267Z,3.10
2022-08-14T15:41:41.833Z,2.80
2022-08-14T15:44:24.579Z,2.67
2022-08-14T15:46:54.793Z,3.08
2022-08-14T15:49:33.240Z,3.17
2022-08-14T15:52:03.486Z,3.08
2022-08-14T15:54:31.957Z,3.20
2022-08-14T15:57:08.420Z,3.40
2022-08-14T15:59:55.865Z,2.80
2022-08-14T16:02:24.614Z,2.75
2022-08-14T16:07:27.354Z,2.80
2022-08-14T16:10:27.344Z,3.40
2022-08-14T16:12:46.647Z,2.65
2022-08-14T16:15:17.140Z,2.95
2022-08-14T16:17:46.040Z,2.70
2022-08-14T16:20:42.080Z,2.72
2022-08-14T16:23:10.756Z,3.05
2022-08-14T16:25:44.054Z,2.53
2022-08-14T16:28:27.105Z,2.23
2022-08-14T16:30:56.116Z,2.75
2022-08-14T16:33:27.983Z,2.65
2022-08-14T16:36:30.394Z,2.13
2022-08-14T16:39:02.216Z,2.47
2022-08-14T16:41:30.387Z,3.28
2022-08-14T16:44:04.676Z,2.80
2022-08-14T16:46:42.867Z,2.40
2022-08-14T16:49:14.312Z,2.33
2022-08-14T16:51:43.932Z,2.40
2022-08-14T16:54:33.995Z,3.10
2022-08-14T16:57:24.001Z,2.60
2022-08-14T16:59:57.619Z,2.53
2022-08-14T17:02:40.038Z,2.45
2022-08-14T17:05:17.907Z,2.28
2022-08-14T17:08:28.275Z,2.10
2022-08-14T17:10:52.168Z,2.13
2022-08-14T17:13:20.926Z,2.30
2022-08-14T17:16:24.038Z,2.85
2022-08-14T17:19:00.191Z,2.90
2022-08-14T17:21:41.000Z,2.75
2022-08-14T17:24:56.697Z,2.75
2022-08-14T17:27:04.271Z,3.22
2022-08-14T17:29:44.347Z,3.13
2022-08-14T17:32:30.109Z,2.85
2022-08-14T17:35:10.407Z,3.45
2022-08-14T17:37:44.803Z,3.63
2022-08-14T17:40:22.963Z,3.70
2022-08-14T17:42:58.990Z,3.50
2022-08-14T17:45:41.610Z,3.83
2022-08-14T17:49:15.559Z,3.50
2022-08-14T17:51:23.901Z,3.85
2022-08-14T17:54:01.334Z,3.40
2022-08-14T17:56:31.496Z,4.18
2022-08-14T17:59:05.832Z,3.90
2022-08-14T18:01:38.896Z,4.25
2022-08-14T18:04:27.699Z,3.63
2022-08-14T18:07:08.695Z,4.10
2022-08-14T18:09:57.405Z,3.97
2022-08-14T18:12:36.746Z,3.55
2022-08-14T18:15:14.404Z,3.55
2022-08-14T18:17:52.508Z,3.25
2022-08-14T18:21:40.419Z,3.38
2022-08-14T18:23:12.747Z,3.58
2022-08-14T18:25:51.568Z,3.15
2022-08-14T18:28:51.141Z,3.17
2022-08-14T18:31:22.822Z,3.38
2022-08-14T18:34:31.888Z,3.42
2022-08-14T18:37:18.386Z,3.10
2022-08-14T18:40:02.285Z,3.55
2022-08-14T18:42:32.923Z,3.10
2022-08-14T18:45:02.102Z,3.58
2022-08-14T18:50:32.471Z,3.63
2022-08-14T18:53:10.638Z,3.22
2022-08-14T18:55:53.315Z,3.00
2022-08-14T18:58:48.399Z,3.30
2022-08-14T19:01:30.301Z,3.47
2022-08-14T19:06:41.993Z,3.22
2022-08-14T19:09:50.314Z,3.55
2022-08-14T19:12:56.231Z,3.50
2022-08-14T19:15:27.817Z,4.38
2022-08-14T19:18:10.555Z,3.90
2022-08-14T19:20:52.977Z,3.53
2022-08-14T19:23:23.964Z,4.47
2022-08-14T19:26:35.875Z,3.72
2022-08-14T19:29:37.920Z,4.30
2022-08-14T19:32:36.675Z,3.35
2022-08-14T19:35:17.038Z,3.85
2022-08-14T19:37:57.853Z,4.00
2022-08-14T19:40:42.973Z,3.90
2022-08-14T19:43:56.569Z,3.65
2022-08-14T19:46:37.746Z,4.13
2022-08-14T19:48:58.826Z,3.85
2022-08-14T19:51:32.830Z,4.63
2022-08-14T19:54:13.781Z,4.57
2022-08-14T19:56:45.640Z,4.28
2022-08-14T19:59:22.058Z,4.20
2022-08-14T20:01:54.494Z,4.10
2022-08-14T20:04:47.600Z,4.40
2022-08-14T20:09:05.688Z,4.20
2022-08-14T20:11:05.014Z,4.50
2022-08-14T20:13:15.414Z,4.22
2022-08-14T20:15:51.906Z,4.13
2022-08-14T20:18:49.255Z,4.15
2022-08-14T20:21:16.058Z,4.22
2022-08-14T20:23:43.469Z,4.15
2022-08-14T20:29:06.858Z,4.20
2022-08-14T20:31:37.595Z,4.10
2022-08-14T20:34:24.365Z,4.80
2022-08-14T20:37:04.398Z,4.18
2022-08-14T20:39:34.642Z,4.13
2022-08-14T20:42:43.494Z,4.78
2022-08-14T20:45:21.617Z,4.80
2022-08-14T20:47:58.634Z,5.00
2022-08-14T20:50:30.075Z,4.78
2022-08-14T20:53:00.352Z,4.55
2022-08-14T20:55:41.780Z,4.88
2022-08-14T20:58:43.794Z,4.50
2022-08-14T21:01:32.582Z,4.80
2022-08-14T21:04:02.593Z,4.70
2022-08-14T21:07:22.811Z,4.35
2022-08-14T21:10:03.356Z,4.70
2022-08-14T21:12:33.813Z,4.55
2022-08-14T21:15:11.015Z,4.50
2022-08-14T21:17:41.549Z,4.22
2022-08-14T21:20:25.593Z,4.60
2022-08-14T21:22:56.608Z,4.15
2022-08-14T21:25:28.939Z,4.97
2022-08-14T21:28:29.216Z,4.22
2022-08-14T21:30:58.271Z,4.45
2022-08-14T21:33:25.913Z,4.57
2022-08-14T21:35:56.681Z,3.72
2022-08-14T21:38:33.451Z,4.30
2022-08-14T21:41:42.271Z,4.32
2022-08-14T21:44:18.066Z,4.40
2022-08-14T21:46:53.618Z,4.32
2022-08-14T21:49:33.898Z,4.07
2022-08-14T21:52:50.495Z,4.13
2022-08-14T21:54:59.955Z,4.47
2022-08-14T21:57:55.751Z,3.85
2022-08-14T22:00:34.538Z,4.28
2022-08-14T22:03:11.601Z,4.53
2022-08-14T22:05:41.684Z,4.22
2022-08-14T22:08:12.250Z,4.45
2022-08-14T22:10:46.863Z,3.67
2022-08-14T22:13:20.861Z,4.15
2022-08-14T22:15:51.140Z,4.18
2022-08-14T22:18:25.433Z,4.53
2022-08-14T22:20:54.123Z,4.68
2022-08-14T22:23:26.240Z,3.90
2022-08-14T22:25:55.493Z,4.07
2022-08-14T22:28:33.072Z,4.32
2022-08-14T22:31:10.547Z,4.43
2022-08-14T22:33:40.187Z,3.80
2022-08-14T22:36:33.660Z,4.47
2022-08-14T22:39:02.388Z,4.25
2022-08-14T22:41:36.517Z,4.25
2022-08-14T22:44:14.899Z,5.50
2022-08-14T22:46:45.159Z,4.43
2022-08-14T22:49:16.726Z,4.60
2022-08-14T22:52:33.145Z,4.57
2022-08-14T22:54:54.216Z,4.60
2022-08-14T22:57:22.409Z,4.47
2022-08-14T22:59:51.508Z,4.85
2022-08-14T23:02:30.169Z,4.60
2022-08-14T23:04:59.013Z,4.05
2022-08-14T23:08:56.324Z,4.50
2022-08-14T23:10:32.618Z,5.05
2022-08-14T23:13:02.721Z,4.55
2022-08-14T23:15:30.647Z,4.72
2022-08-14T23:17:58.920Z,4.57
2022-08-14T23:20:29.097Z,4.57
2022-08-14T23:22:57.812Z,4.20
2022-08-14T23:25:56.812Z,4.00
2022-08-14T23:28:33.575Z,5.15
2022-08-14T23:31:09.290Z,4.32
2022-08-14T23:33:46.202Z,4.72
2022-08-14T23:36:32.358Z,4.38
2022-08-14T23:39:07.301Z,4.90
2022-08-14T23:41:46.518Z,4.65
2022-08-14T23:44:22.488Z,4.70
2022-08-14T23:46:52.769Z,5.00
2022-08-14T23:49:26.005Z,4.60
2022-08-14T23:51:59.681Z,5.15
2022-08-14T23:54:49.084Z,5.30
2022-08-14T23:57:19.088Z,4.32
2022-08-14T23:59:54.707Z,4.20
